Time;durP1;ratioP1;P1;durP2;ratioP2;P2;SDS_P1;SDS_P2;PMS_P1;PMS_P2;Temp;Humidity;BMP_temperature;BMP_pressure;BME280_temperature;BME280_humidity;BME280_pressure;Samples;Min_cycle;Max_cycle;Signal;HPM_P1;HPM_P2
2021/04/12 00:00:45;;;;;;;8.95;5.90;;;;;;;13.92;45.89;102241.29;1700756;84;21220;-46
2021/04/12 00:03:46;;;;;;;7.78;6.12;;;;;;;13.94;45.96;102231.23;1775584;79;22383;-49
2021/04/12 00:06:25;;;;;;;6.58;5.80;;;;;;;13.94;45.90;102226.44;1771613;78;23141;-51
2021/04/12 00:09:00;;;;;;;7.40;5.90;;;;;;;13.79;46.11;102228.80;1689742;83;21313;-46
2021/04/12 00:11:43;;;;;;;10.58;5.67;;;;;;;13.74;46.21;102222.77;1674225;84;21159;-46
2021/04/12 00:14:28;;;;;;;10.00;6.87;;;;;;;13.77;46.36;102217.48;1796909;79;28592;-50
2021/04/12 00:17:03;;;;;;;7.67;6.33;;;;;;;13.74;46.69;102220.15;1741536;82;21140;-48
2021/04/12 00:19:42;;;;;;;7.53;5.85;;;;;;;13.79;46.82;102217.02;1767911;80;21100;-48
2021/04/12 00:22:32;;;;;;;7.85;6.15;;;;;;;13.79;47.07;102217.02;1676105;85;21627;-50
2021/04/12 00:25:17;;;;;;;8.55;6.03;;;;;;;13.86;47.16;102205.61;1771707;79;23559;-47
2021/04/12 00:27:53;;;;;;;9.85;6.33;;;;;;;13.83;46.92;102207.81;1686955;83;21188;-46
2021/04/12 00:30:35;;;;;;;8.23;6.12;;;;;;;13.86;46.84;102205.17;1771629;79;22992;-50
2021/04/12 00:33:26;;;;;;;7.03;5.35;;;;;;;13.82;46.77;102203.48;1706413;82;21192;-49
2021/04/12 00:36:16;;;;;;;10.30;6.40;;;;;;;13.99;46.23;102199.78;1784833;79;28277;-45
2021/04/12 00:38:58;;;;;;;7.60;5.87;;;;;;;14.02;45.38;102200.59;1781002;80;21624;-47
2021/04/12 00:42:05;;;;;;;7.22;6.20;;;;;;;14.06;44.52;102193.13;1740031;80;21330;-46
2021/04/12 00:45:01;;;;;;;8.30;6.10;;;;;;;14.07;44.38;102190.95;1738066;81;21603;-49
2021/04/12 00:47:40;;;;;;;6.60;5.20;;;;;;;14.06;44.04;102190.51;1743909;81;21612;-45
2021/04/12 00:50:25;;;;;;;9.00;5.65;;;;;;;14.05;44.14;102190.11;1753938;81;21168;-47
2021/04/12 00:53:20;;;;;;;10.25;6.80;;;;;;;13.97;44.69;102189.34;1754031;81;21160;-50
2021/04/12 00:56:01;;;;;;;7.97;6.15;;;;;;;13.87;45.31;102185.08;1752637;81;21157;-49
2021/04/12 00:58:45;;;;;;;8.20;5.97;;;;;;;13.83;45.43;102189.50;1643834;87;21200;-46
2021/04/12 01:01:40;;;;;;;9.90;6.25;;;;;;;13.80;45.47;102183.45;1618120;87;21212;-48
2021/04/12 01:04:38;;;;;;;8.55;6.05;;;;;;;13.73;45.29;102179.16;1634338;87;21183;-46
2021/04/12 01:07:31;;;;;;;8.25;6.22;;;;;;;13.65;45.14;102175.77;1637964;87;21644;-48
2021/04/12 01:10:20;;;;;;;7.75;5.90;;;;;;;13.59;45.62;102175.84;1640061;87;21194;-46
2021/04/12 01:13:18;;;;;;;11.57;6.40;;;;;;;13.55;46.19;102177.64;1637501;87;21251;-49
2021/04/12 01:16:25;;;;;;;8.70;6.22;;;;;;;13.49;46.54;102177.71;1639900;87;21729;-49
2021/04/12 01:19:04;;;;;;;8.95;6.50;;;;;;;13.43;46.29;102171.67;1644059;87;21283;-47
2021/04/12 01:22:17;;;;;;;8.48;6.30;;;;;;;13.39;45.95;102163.45;1643947;87;21191;-49
2021/04/12 01:25:39;;;;;;;7.85;5.85;;;;;;;13.37;45.92;102167.39;1634902;87;21183;-50
2021/04/12 01:28:41;;;;;;;7.17;5.87;;;;;;;13.40;46.08;102153.39;1771486;79;22943;-48
2021/04/12 01:31:42;;;;;;;6.42;5.50;;;;;;;13.35;46.54;102152.59;1695950;83;21618;-46
2021/04/12 01:34:50;;;;;;;8.03;6.12;;;;;;;13.35;46.98;102155.21;1702206;83;21597;-48
2021/04/12 01:37:48;;;;;;;9.15;5.55;;;;;;;13.40;46.91;102141.63;1776948;79;23097;-49
2021/04/12 01:40:33;;;;;;;8.38;5.65;;;;;;;13.35;46.54;102144.75;1734828;82;21200;-46
2021/04/12 01:43:21;;;;;;;10.98;5.83;;;;;;;13.35;45.65;102139.53;1738916;82;21286;-50
2021/04/12 01:46:20;;;;;;;8.73;6.30;;;;;;;13.34;45.40;102141.70;1733003;82;21156;-49
2021/04/12 01:49:24;;;;;;;7.10;5.83;;;;;;;13.34;45.20;102135.16;1738936;82;22286;-45
2021/04/12 01:52:34;;;;;;;9.98;5.60;;;;;;;13.32;45.43;102134.31;1739790;82;21617;-50
2021/04/12 01:55:46;;;;;;;9.23;5.92;;;;;;;13.32;45.03;102133.88;1734748;82;21172;-49
2021/04/12 01:58:27;;;;;;;7.97;6.37;;;;;;;13.31;44.90;102127.38;1739537;82;21191;-46
2021/04/12 02:01:13;;;;;;;11.18;6.33;;;;;;;13.32;45.07;102123.86;1733049;82;21160;-46
2021/04/12 02:04:09;;;;;;;7.12;5.75;;;;;;;13.32;45.12;102119.94;1649323;86;21184;-47
2021/04/12 02:07:16;;;;;;;9.25;5.95;;;;;;;13.30;45.17;102117.34;1652264;87;21199;-45
2021/04/12 02:10:33;;;;;;;10.53;6.55;;;;;;;13.31;45.10;102114.30;1648980;87;21354;-49
2021/04/12 02:13:57;;;;;;;11.28;7.10;;;;;;;13.31;45.02;102118.22;1652129;85;21191;-46
2021/04/12 02:16:45;;;;;;;13.45;7.50;;;;;;;13.29;45.63;102118.69;1652160;85;21318;-45
2021/04/12 02:19:43;;;;;;;9.50;7.20;;;;;;;13.27;45.46;102119.14;1649327;87;21672;-48
2021/04/12 02:22:54;;;;;;;9.78;6.90;;;;;;;13.24;45.79;102123.08;1652196;87;21191;-50
2021/04/12 02:25:37;;;;;;;10.95;7.95;;;;;;;13.23;44.74;102121.37;1650926;87;21171;-49
2021/04/12 02:28:39;;;;;;;12.65;6.80;;;;;;;13.25;44.98;102117.83;1918731;73;26962;-47
2021/04/12 02:31:32;;;;;;;10.28;7.42;;;;;;;13.22;44.56;102129.64;1863944;75;21158;-48
2021/04/12 02:34:35;;;;;;;9.08;6.90;;;;;;;13.21;44.10;102129.66;1865572;75;21162;-46
2021/04/12 02:37:30;;;;;;;11.18;6.83;;;;;;;13.18;43.76;102124.02;1876955;75;21130;-49
2021/04/12 02:40:31;;;;;;;8.23;6.80;;;;;;;13.15;43.55;102123.20;1866285;75;21146;-48
2021/04/12 02:43:07;;;;;;;9.58;7.60;;;;;;;13.14;43.48;102120.15;1855241;75;21291;-47
2021/04/12 02:46:06;;;;;;;8.23;7.00;;;;;;;13.11;43.25;102125.42;1859504;76;21118;-46
2021/04/12 02:49:00;;;;;;;10.13;7.65;;;;;;;13.08;43.59;102123.23;1860468;76;21122;-46
2021/04/12 02:51:46;;;;;;;9.58;7.90;;;;;;;13.08;43.97;102130.66;1796081;79;21160;-48
2021/04/12 02:54:29;;;;;;;10.48;7.35;;;;;;;13.05;44.02;102131.13;1878228;75;21149;-47
2021/04/12 02:57:54;;;;;;;13.22;7.22;;;;;;;13.04;43.79;102134.60;1855045;76;21129;-48
2021/04/12 03:00:40;;;;;;;12.88;7.40;;;;;;;13.02;43.53;102136.33;1876629;76;21126;-49
2021/04/12 03:03:34;;;;;;;9.25;7.03;;;;;;;13.00;43.42;102138.09;1865752;75;21094;-49
2021/04/12 03:06:48;;;;;;;11.65;8.10;;;;;;;12.97;43.31;102129.42;1862281;74;21154;-49
2021/04/12 03:10:01;;;;;;;11.10;7.78;;;;;;;12.96;43.50;102131.16;1869617;75;21112;-49
2021/04/12 03:12:57;;;;;;;8.70;7.00;;;;;;;12.94;44.08;102124.25;1876987;74;21554;-45
2021/04/12 03:15:56;;;;;;;13.95;8.65;;;;;;;12.91;43.63;102122.53;1758733;80;21167;-50
2021/04/12 03:18:56;;;;;;;12.73;7.28;;;;;;;12.90;43.59;102118.16;1758437;81;21190;-46
2021/04/12 03:21:51;;;;;;;13.28;8.75;;;;;;;12.88;43.75;102114.70;1757183;80;21227;-46
2021/04/12 03:24:30;;;;;;;12.37;8.33;;;;;;;12.89;44.33;102113.84;1755860;80;21334;-47
2021/04/12 03:27:28;;;;;;;11.75;8.05;;;;;;;12.90;44.40;102113.41;1751751;81;21219;-48
2021/04/12 03:30:20;;;;;;;11.25;8.48;;;;;;;12.90;44.10;102116.86;1753852;80;21307;-50
2021/04/12 03:33:18;;;;;;;9.98;7.90;;;;;;;12.94;44.19;102114.64;1754309;80;21181;-49
2021/04/12 03:36:18;;;;;;;10.68;8.28;;;;;;;12.93;43.79;102110.31;1750707;82;21605;-50
2021/04/12 03:39:12;;;;;;;10.45;7.87;;;;;;;12.92;43.89;102115.09;1740871;80;21202;-46
2021/04/12 03:42:25;;;;;;;10.82;7.90;;;;;;;12.91;44.09;102114.69;1753458;82;21160;-50
2021/04/12 03:45:01;;;;;;;11.48;8.38;;;;;;;12.91;44.00;102117.30;1753357;82;21240;-49
2021/04/12 03:47:40;;;;;;;10.25;7.58;;;;;;;12.85;44.14;102122.59;1753135;80;21176;-49
2021/04/12 03:50:49;;;;;;;13.80;9.00;;;;;;;12.85;44.34;102119.97;1753423;80;21636;-48
2021/04/12 03:53:48;;;;;;;13.03;8.85;;;;;;;12.84;44.09;102120.84;1866580;74;21177;-49
2021/04/12 03:56:50;;;;;;;12.05;8.28;;;;;;;12.82;44.31;102122.59;1863873;76;21141;-49
2021/04/12 03:59:40;;;;;;;11.65;7.70;;;;;;;12.84;44.06;102123.45;1865097;75;21117;-45
2021/04/12 04:02:33;;;;;;;10.50;8.30;;;;;;;12.87;44.27;102125.17;1868516;76;21161;-46
2021/04/12 04:05:31;;;;;;;13.13;9.10;;;;;;;12.90;43.80;102125.16;1868943;76;21511;-47
2021/04/12 04:08:24;;;;;;;14.10;9.85;;;;;;;12.95;43.37;102128.14;1861774;76;21146;-51
2021/04/12 04:11:20;;;;;;;12.05;9.10;;;;;;;12.94;43.19;102129.01;1866254;75;21161;-47
2021/04/12 04:14:24;;;;;;;11.25;9.35;;;;;;;12.97;43.57;102133.34;1872401;75;21173;-45
2021/04/12 04:17:30;;;;;;;14.63;9.40;;;;;;;13.00;43.59;102129.41;1872095;75;21149;-49
2021/04/12 04:20:19;;;;;;;11.38;8.10;;;;;;;13.02;44.40;102127.19;1807818;77;21162;-45
2021/04/12 04:23:09;;;;;;;9.53;8.33;;;;;;;13.06;44.44;102128.91;1813758;77;21162;-48
2021/04/12 04:26:04;;;;;;;13.32;9.65;;;;;;;13.08;44.44;102126.75;1814031;77;21150;-47
2021/04/12 04:28:50;;;;;;;12.70;9.03;;;;;;;13.08;44.46;102131.97;1802110;77;21103;-47
2021/04/12 04:31:49;;;;;;;10.45;8.00;;;;;;;13.04;45.16;102129.38;1801424;77;21340;-47
2021/04/12 04:34:33;;;;;;;11.57;8.80;;;;;;;13.11;44.65;102129.34;1771666;79;22321;-49
2021/04/12 04:37:35;;;;;;;11.08;8.38;;;;;;;13.04;44.74;102129.38;1681374;83;21152;-45
2021/04/12 04:40:29;;;;;;;11.90;8.78;;;;;;;13.02;45.20;102134.18;1676016;84;21207;-48
2021/04/12 04:43:31;;;;;;;10.80;8.55;;;;;;;12.99;45.22;102138.11;1696025;84;21175;-48
2021/04/12 04:46:05;;;;;;;;;;;;;;;12.99;45.90;102140.30;1690676;84;21264;-46
2021/04/12 04:48:58;;;;;;;11.25;8.80;;;;;;;13.04;45.85;102145.52;1685369;84;20144;-50
2021/04/12 04:51:37;;;;;;;11.33;8.70;;;;;;;13.06;45.49;102137.22;1680681;84;21234;-49
2021/04/12 04:54:44;;;;;;;9.88;7.55;;;;;;;13.10;45.31;102145.89;1687901;84;21183;-46
2021/04/12 04:57:27;;;;;;;10.03;7.33;;;;;;;13.13;44.86;102148.48;1683506;84;21260;-48
2021/04/12 05:00:16;;;;;;;10.48;8.65;;;;;;;13.15;44.15;102147.56;1680418;84;21192;-50
2021/04/12 05:03:18;;;;;;;14.87;8.28;;;;;;;13.16;43.45;102145.83;1684473;84;21660;-46
2021/04/12 05:06:25;;;;;;;10.15;7.30;;;;;;;13.16;43.24;102154.54;1685395;84;21616;-47
2021/04/12 05:09:20;;;;;;;10.88;8.00;;;;;;;13.15;42.93;102147.56;1686389;83;21264;-46
2021/04/12 05:12:28;;;;;;;18.25;9.00;;;;;;;13.17;42.62;102148.41;1772408;79;23099;-48
2021/04/12 05:15:45;;;;;;;33.88;11.00;;;;;;;13.11;42.98;102158.09;1744543;82;21164;-49
2021/04/12 05:18:45;;;;;;;20.23;10.08;;;;;;;13.04;42.96;102152.89;1739293;82;21160;-50
2021/04/12 05:21:48;;;;;;;15.08;9.50;;;;;;;13.00;43.14;102146.39;1741962;82;21172;-48
2021/04/12 05:25:01;;;;;;;10.13;7.95;;;;;;;12.99;43.24;102141.60;1766317;79;22728;-48
2021/04/12 05:28:05;;;;;;;12.53;8.85;;;;;;;12.99;42.92;102144.65;1741096;82;21585;-44
2021/04/12 05:30:58;;;;;;;12.18;8.60;;;;;;;13.03;43.02;102145.92;1737768;82;21152;-49
2021/04/12 05:34:01;;;;;;;10.35;7.55;;;;;;;13.12;42.96;102144.12;1735698;82;21157;-48
2021/04/12 05:37:12;;;;;;;12.28;8.05;;;;;;;13.20;42.85;102143.60;1739838;82;21124;-44
2021/04/12 05:40:04;;;;;;;11.75;7.62;;;;;;;13.28;42.89;102144.38;1739671;82;21141;-47
2021/04/12 05:43:02;;;;;;;9.83;7.87;;;;;;;13.32;42.92;102142.16;1743823;82;21193;-48
2021/04/12 05:46:04;;;;;;;10.90;8.10;;;;;;;13.38;43.02;102145.58;1749547;82;21149;-47
2021/04/12 05:48:59;;;;;;;12.68;8.18;;;;;;;13.50;42.82;102142.81;1736819;82;21172;-48
2021/04/12 05:52:02;;;;;;;10.93;7.50;;;;;;;13.61;42.37;102145.31;1721876;82;21317;-49
2021/04/12 05:54:58;;;;;;;12.35;8.28;;;;;;;13.81;42.19;102140.69;1720642;83;21584;-48
2021/04/12 05:57:49;;;;;;;9.78;7.55;;;;;;;14.11;42.06;102140.29;1723104;83;21160;-50
2021/04/12 06:00:38;;;;;;;11.08;8.05;;;;;;;14.47;41.24;102135.83;1713314;83;21223;-48
2021/04/12 06:04:01;;;;;;;24.65;9.10;;;;;;;14.74;41.05;102133.63;1712846;83;21200;-45
2021/04/12 06:07:10;;;;;;;10.58;7.75;;;;;;;15.01;40.51;102132.72;1722319;83;21219;-45
2021/04/12 06:10:12;;;;;;;11.90;8.13;;;;;;;15.23;39.32;102135.79;1711963;83;21191;-46
2021/04/12 06:13:05;;;;;;;12.30;8.05;;;;;;;15.33;38.98;102132.13;1703482;84;21148;-45
2021/04/12 06:16:11;;;;;;;11.18;8.48;;;;;;;15.50;38.90;102135.29;1720154;83;21194;-47
2021/04/12 06:19:28;;;;;;;10.53;7.60;;;;;;;15.77;38.55;102130.79;1717700;83;21575;-50
2021/04/12 06:22:29;;;;;;;10.30;7.58;;;;;;;16.12;37.96;102129.57;1813977;79;22955;-50
2021/04/12 06:25:41;;;;;;;13.08;8.43;;;;;;;16.20;37.68;102127.63;1773334;80;21574;-51
2021/04/12 06:28:41;;;;;;;10.68;7.55;;;;;;;16.22;37.68;102124.95;1749889;81;21164;-46
2021/04/12 06:31:27;;;;;;;10.18;8.13;;;;;;;16.24;37.80;102129.28;1719672;81;21343;-45
2021/04/12 06:34:33;;;;;;;10.80;8.48;;;;;;;16.28;37.75;102129.63;1710623;83;21141;-45
2021/04/12 06:37:42;;;;;;;12.33;8.18;;;;;;;16.21;37.61;102125.88;1754147;81;21580;-45
2021/04/12 06:41:01;;;;;;;10.65;8.45;;;;;;;16.01;37.66;102123.69;1650394;86;21184;-46
2021/04/12 06:43:53;;;;;;;11.80;8.40;;;;;;;15.82;38.12;102127.63;1669345;85;21172;-46
2021/04/12 06:46:41;;;;;;;11.50;8.08;;;;;;;15.70;38.38;102130.52;1713184;83;21203;-50
2021/04/12 06:49:32;;;;;;;12.53;8.85;;;;;;;15.63;38.16;102124.10;1816401;78;23095;-44
2021/04/12 06:52:30;;;;;;;14.05;9.68;;;;;;;15.43;37.79;102132.39;1762403;80;21322;-45
2021/04/12 06:58:20;;;;;;;11.73;9.08;;;;;;;15.14;38.71;102129.42;1777811;80;21148;-48
2021/04/12 07:01:08;;;;;;;10.28;9.03;;;;;;;15.15;38.99;102124.14;1745566;81;21141;-45
2021/04/12 07:04:36;;;;;;;9.90;8.43;;;;;;;15.21;38.78;102124.47;1752578;81;21117;-50
2021/04/12 07:07:37;;;;;;;10.60;8.83;;;;;;;15.30;38.71;102129.11;1727582;83;21576;-47
2021/04/12 07:10:45;;;;;;;11.95;8.90;;;;;;;15.40;37.81;102127.16;1663016;86;21341;-50
2021/04/12 07:13:36;;;;;;;12.03;8.88;;;;;;;15.45;37.68;102129.29;1680593;85;21252;-48
2021/04/12 07:16:24;;;;;;;16.95;9.63;;;;;;;15.48;37.67;102129.69;1680862;85;21172;-46
2021/04/12 07:19:25;;;;;;;13.48;8.90;;;;;;;15.60;37.74;102128.95;1811477;79;23596;-46
2021/04/12 07:22:37;;;;;;;12.73;9.18;;;;;;;15.70;37.39;102127.90;1783063;80;21175;-46
2021/04/12 07:25:35;;;;;;;12.63;9.10;;;;;;;15.92;37.21;102123.91;1772323;80;21159;-51
2021/04/12 07:28:47;;;;;;;10.98;9.25;;;;;;;16.12;36.68;102129.57;1776565;80;21640;-46
2021/04/12 07:31:39;;;;;;;14.93;10.50;;;;;;;16.28;36.20;102115.17;1793068;80;21140;-46
2021/04/12 07:34:37;;;;;;;11.95;8.75;;;;;;;16.38;35.62;102107.09;1781410;80;21191;-51
2021/04/12 07:37:32;;;;;;;15.85;9.58;;;;;;;16.38;35.43;102118.91;1792899;80;21314;-46
2021/04/12 07:40:57;;;;;;;11.18;9.45;;;;;;;16.34;35.56;102115.94;1692577;84;21620;-45
2021/04/12 07:44:18;;;;;;;12.53;9.98;;;;;;;16.34;35.40;102104.13;1841740;77;22541;-50
2021/04/12 07:46:55;;;;;;;11.85;9.18;;;;;;;16.20;35.24;102110.55;1820656;78;21288;-49
2021/04/12 07:50:01;;;;;;;13.28;9.70;;;;;;;16.14;35.74;102105.89;1809409;78;21144;-44
2021/04/12 07:52:38;;;;;;;12.65;8.98;;;;;;;16.19;35.46;102107.53;1722709;82;21684;-45
2021/04/12 07:55:34;;;;;;;14.53;9.58;;;;;;;16.24;35.16;102106.95;1716688;83;21622;-45
2021/04/12 07:58:43;;;;;;;13.95;10.48;;;;;;;16.24;35.23;102108.27;1716974;82;21325;-48
2021/04/12 08:01:46;;;;;;;11.53;9.18;;;;;;;16.24;35.89;102108.27;1714469;83;21341;-45
2021/04/12 08:04:57;;;;;;;14.55;9.30;;;;;;;16.24;35.94;102110.89;1715190;83;21199;-45
2021/04/12 08:08:19;;;;;;;16.45;11.95;;;;;;;16.24;35.88;102114.83;1709877;82;21230;-45
2021/04/12 08:11:26;;;;;;;11.97;9.83;;;;;;;16.26;35.83;102114.34;1657060;86;21185;-45
2021/04/12 08:14:35;;;;;;;14.87;9.93;;;;;;;16.29;35.54;102107.73;1665135;85;21192;-45
2021/04/12 08:17:48;;;;;;;11.50;9.48;;;;;;;16.29;35.94;102111.66;1663760;85;21173;-49
2021/04/12 08:20:19;;;;;;;;;;;;;;;16.35;35.95;102108.46;1672539;85;21192;-46
2021/04/12 08:23:29;;;;;;;14.23;10.15;;;;;;;16.43;35.90;102105.20;1662937;85;20448;-48
2021/04/12 08:26:40;;;;;;;14.58;10.70;;;;;;;16.49;35.91;102106.36;1697291;84;21192;-48
2021/04/12 08:30:04;;;;;;;12.25;10.10;;;;;;;16.63;34.55;102096.42;1725430;81;21622;-47
2021/04/12 08:33:06;;;;;;;13.08;10.63;;;;;;;16.79;33.27;102099.06;1761358;81;21132;-47
2021/04/12 08:36:15;;;;;;;16.42;12.13;;;;;;;16.92;32.92;102095.19;1647436;85;21240;-46
2021/04/12 08:39:11;;;;;;;18.77;12.40;;;;;;;16.99;32.67;102096.77;1638044;85;21271;-49
2021/04/12 08:42:35;;;;;;;13.18;11.50;;;;;;;17.07;32.28;102090.39;1857947;77;27456;-49
2021/04/12 08:45:38;;;;;;;14.43;11.30;;;;;;;17.05;32.37;102093.96;1813739;78;21154;-47
2021/04/12 08:48:40;;;;;;;14.55;11.78;;;;;;;17.04;32.88;102084.37;1814064;78;21165;-46
2021/04/12 08:51:29;;;;;;;12.40;10.65;;;;;;;17.03;33.35;102085.25;1809468;78;21173;-46
2021/04/12 08:54:18;;;;;;;14.95;10.88;;;;;;;17.00;33.78;102076.16;1818055;78;21562;-49
2021/04/12 08:57:45;;;;;;;14.58;11.05;;;;;;;16.99;34.16;102076.59;1808516;78;21618;-49
2021/04/12 09:01:02;;;;;;;11.63;10.15;;;;;;;17.00;34.50;102080.09;1818164;78;21157;-48
2021/04/12 09:04:01;;;;;;;13.78;10.82;;;;;;;16.99;34.73;102078.36;1819530;78;21181;-47
2021/04/12 09:07:27;;;;;;;14.03;10.45;;;;;;;16.97;35.01;102077.53;1808338;78;21145;-46
2021/04/12 09:10:15;;;;;;;14.40;10.85;;;;;;;16.94;35.14;102078.47;1818044;78;21589;-46
2021/04/12 09:13:14;;;;;;;13.22;10.23;;;;;;;16.90;35.58;102069.39;1814108;78;21118;-45
2021/04/12 09:16:17;;;;;;;11.00;9.88;;;;;;;16.89;35.92;102071.63;1785608;78;21140;-48
2021/04/12 09:19:24;;;;;;;13.50;10.75;;;;;;;16.91;36.48;102077.70;1811019;78;21177;-48
2021/04/12 09:22:16;;;;;;;13.00;10.28;;;;;;;17.00;36.66;102078.78;1813938;78;21617;-49
2021/04/12 09:25:00;;;;;;;;;;;;;;;17.09;36.40;102081.14;1807843;78;21264;-46
2021/04/12 09:28:21;;;;;;;12.20;9.70;;;;;;;17.10;36.58;102076.30;1819880;78;20194;-46
2021/04/12 09:31:15;;;;;;;12.43;9.68;;;;;;;17.11;36.54;102075.39;1818202;78;21169;-49
2021/04/12 09:34:13;;;;;;;13.55;10.32;;;;;;;17.14;36.35;102070.05;1771673;79;23576;-50
2021/04/12 09:37:10;;;;;;;;;;;;;;;17.06;36.44;102073.35;1740536;81;21148;-45
2021/04/12 09:39:56;;;;;;;11.63;9.88;;;;;;;17.03;36.93;102077.36;1737947;81;20154;-46
2021/04/12 09:43:03;;;;;;;13.50;10.00;;;;;;;16.97;37.39;102068.33;1723280;82;21298;-50
2021/04/12 09:45:58;;;;;;;13.03;10.50;;;;;;;16.86;37.84;102066.43;1656398;86;21203;-48
2021/04/12 09:48:48;;;;;;;12.55;9.93;;;;;;;16.79;38.42;102068.39;1655748;87;21195;-48
2021/04/12 09:51:47;;;;;;;11.22;10.05;;;;;;;16.75;38.45;102063.25;1654542;87;21187;-46
2021/04/12 09:54:53;;;;;;;11.25;9.60;;;;;;;16.73;38.83;102065.05;1651865;87;21224;-48
2021/04/12 09:57:57;;;;;;;12.20;9.95;;;;;;;16.68;38.88;102059.05;1649203;87;21183;-47
2021/04/12 10:01:04;;;;;;;11.50;10.30;;;;;;;16.63;39.17;102053.06;1655755;87;21163;-46
2021/04/12 10:04:11;;;;;;;13.62;9.98;;;;;;;16.56;39.68;102052.34;1795508;79;23105;-47
2021/04/12 10:06:52;;;;;;;12.20;10.10;;;;;;;16.46;39.92;102042.08;1772759;80;21139;-46
2021/04/12 10:09:57;;;;;;;12.58;9.70;;;;;;;16.41;40.03;102045.26;1642048;87;21196;-46
2021/04/12 10:12:51;;;;;;;11.05;9.95;;;;;;;16.34;40.22;102040.64;1678871;85;21683;-49
2021/04/12 10:15:37;;;;;;;12.98;9.70;;;;;;;16.29;40.68;102039.87;1675089;85;21172;-46
2021/04/12 10:18:25;;;;;;;12.47;10.63;;;;;;;16.27;40.70;102038.61;1676024;85;21188;-46
2021/04/12 10:21:17;;;;;;;14.63;9.83;;;;;;;16.28;41.08;102038.13;1678683;85;21332;-49
2021/04/12 10:24:09;;;;;;;10.55;9.33;;;;;;;16.29;41.35;102038.12;1678771;85;21715;-46
2021/04/12 10:27:03;;;;;;;13.10;11.00;;;;;;;16.37;41.44;102034.42;1804481;79;22232;-49
2021/04/12 10:29:42;;;;;;;14.50;9.95;;;;;;;16.35;41.59;102034.91;1773952;80;21140;-50
2021/04/12 10:32:25;;;;;;;14.13;10.15;;;;;;;16.42;41.87;102032.55;1776010;80;21195;-45
2021/04/12 10:35:08;;;;;;;11.12;9.40;;;;;;;16.59;42.13;102031.70;1800878;79;23298;-49
2021/04/12 10:37:47;;;;;;;11.35;10.13;;;;;;;16.65;41.69;102036.33;1734723;82;21144;-47
2021/04/12 10:40:40;;;;;;;13.40;10.10;;;;;;;16.74;41.59;102032.59;1741691;81;21565;-49
2021/04/12 10:43:47;;;;;;;16.70;13.50;;;;;;;16.88;41.51;102030.45;1797717;79;28170;-50
2021/04/12 10:46:40;;;;;;;13.60;11.70;;;;;;;16.92;41.26;102030.33;1768630;80;21141;-47
2021/04/12 10:49:23;;;;;;;10.80;9.65;;;;;;;17.03;41.30;102031.34;1684238;83;21518;-46
2021/04/12 10:52:28;;;;;;;14.55;10.28;;;;;;;17.06;41.28;102035.22;1755662;81;21196;-48
2021/04/12 10:55:26;;;;;;;12.40;9.90;;;;;;;17.07;41.18;102044.81;1764991;81;21215;-47
2021/04/12 10:58:35;;;;;;;11.50;10.20;;;;;;;17.05;41.35;102043.55;1764762;80;21153;-51
2021/04/12 11:01:29;;;;;;;12.47;9.70;;;;;;;17.02;41.46;102046.73;1760395;81;21181;-49
2021/04/12 11:04:21;;;;;;;14.63;10.20;;;;;;;17.00;42.04;102048.54;1747594;81;21216;-47
2021/04/12 11:07:17;;;;;;;11.60;10.10;;;;;;;16.97;41.92;102047.30;1756124;80;21169;-46
2021/04/12 11:10:12;;;;;;;11.68;9.48;;;;;;;16.94;42.09;102043.42;1771701;79;23078;-46
2021/04/12 11:12:56;;;;;;;11.75;9.85;;;;;;;16.82;42.19;102047.70;1736820;82;21124;-49
2021/04/12 11:15:45;;;;;;;12.33;10.18;;;;;;;16.73;42.49;102042.71;1655025;86;21184;-44
2021/04/12 11:18:36;;;;;;;12.70;10.10;;;;;;;16.68;42.85;102041.95;1810488;79;23065;-50
2021/04/12 11:21:21;;;;;;;12.53;10.58;;;;;;;16.56;43.04;102046.23;1784297;80;21148;-46
2021/04/12 11:24:17;;;;;;;11.95;10.08;;;;;;;16.48;43.69;102056.91;1777490;80;21148;-46
2021/04/12 11:27:09;;;;;;;13.15;9.63;;;;;;;16.45;43.66;102049.09;1722736;83;21150;-46
2021/04/12 11:29:46;;;;;;;13.30;9.18;;;;;;;16.45;44.02;102051.72;1768861;79;22228;-49
2021/04/12 11:32:35;;;;;;;14.43;10.72;;;;;;;16.36;44.15;102048.47;1741061;82;21145;-50
2021/04/12 11:35:16;;;;;;;10.85;9.75;;;;;;;16.34;44.56;102040.64;1806826;79;22522;-52
2021/04/12 11:38:14;;;;;;;11.70;10.28;;;;;;;16.27;44.72;102037.30;1781625;80;21125;-46
2021/04/12 11:40:57;;;;;;;12.65;9.80;;;;;;;16.24;44.73;102033.41;1782688;80;21160;-49
2021/04/12 11:43:29;;;;;;;10.90;9.78;;;;;;;16.24;44.92;102026.85;1752722;80;21581;-47
2021/04/12 11:46:19;;;;;;;12.63;9.80;;;;;;;16.26;44.76;102027.67;1763287;80;21120;-51
2021/04/12 11:48:53;;;;;;;11.83;9.60;;;;;;;16.27;44.92;102016.28;1770392;80;21576;-49
2021/04/12 11:51:33;;;;;;;12.43;10.60;;;;;;;16.29;45.28;102024.11;1691386;84;21199;-48
2021/04/12 11:54:09;;;;;;;14.73;10.35;;;;;;;16.34;45.37;102018.75;1771661;79;23082;-51
2021/04/12 11:57:00;;;;;;;12.60;10.00;;;;;;;16.26;45.67;102019.80;1738450;82;21143;-47
2021/04/12 11:59:49;;;;;;;13.35;10.15;;;;;;;16.22;45.87;102024.72;1738820;82;21373;-48
2021/04/12 12:02:42;;;;;;;13.55;10.25;;;;;;;16.22;46.01;102016.83;1696735;84;21619;-49
2021/04/12 12:05:21;;;;;;;13.15;9.48;;;;;;;16.24;45.97;102012.41;1687554;84;21175;-47
2021/04/12 12:08:06;;;;;;;12.03;9.73;;;;;;;16.29;46.05;102010.98;1686612;84;21623;-52
2021/04/12 12:10:42;;;;;;;11.95;10.10;;;;;;;16.32;46.13;102013.98;1670327;85;21173;-49
2021/04/12 12:13:49;;;;;;;14.43;10.08;;;;;;;16.34;46.31;102018.75;1687929;84;21183;-47
2021/04/12 12:16:36;;;;;;;11.78;9.43;;;;;;;16.33;46.42;102017.01;1686982;84;21186;-49
2021/04/12 12:19:44;;;;;;;11.50;10.03;;;;;;;16.28;46.71;102027.63;1688501;84;21254;-52
2021/04/12 12:22:30;;;;;;;14.87;10.40;;;;;;;16.22;47.13;102017.28;1810168;79;23024;-50
2021/04/12 12:25:10;;;;;;;12.93;10.53;;;;;;;16.11;47.47;102020.20;1776685;80;21143;-48
2021/04/12 12:28:03;;;;;;;14.43;9.83;;;;;;;16.07;47.76;102021.14;1780855;80;21878;-46
2021/04/12 12:31:05;;;;;;;14.73;10.30;;;;;;;16.03;48.09;102023.42;1776045;80;21164;-49
2021/04/12 12:33:50;;;;;;;11.48;9.90;;;;;;;15.99;48.14;102019.15;1769223;80;21580;-49
2021/04/12 12:36:34;;;;;;;13.00;10.53;;;;;;;15.92;48.33;102021.97;1749554;80;21171;-49
2021/04/12 12:39:27;;;;;;;12.53;10.45;;;;;;;15.90;48.62;102030.33;1724563;83;21186;-49
2021/04/12 12:41:56;;;;;;;13.18;9.93;;;;;;;15.87;48.77;102023.38;1726564;83;21187;-46
2021/04/12 12:44:25;;;;;;;12.82;9.33;;;;;;;15.88;48.92;102027.75;1678999;83;21218;-46
2021/04/12 12:47:13;;;;;;;13.22;10.30;;;;;;;15.93;48.97;102030.27;1771669;79;23502;-46
2021/04/12 12:49:48;;;;;;;10.63;9.08;;;;;;;15.88;49.11;102027.75;1688386;83;21665;-47
2021/04/12 12:52:38;;;;;;;17.62;9.43;;;;;;;15.95;49.18;102029.31;1771597;79;23095;-49
2021/04/12 12:55:14;;;;;;;12.93;9.63;;;;;;;15.93;49.30;102031.11;1739977;82;21537;-50
2021/04/12 12:57:43;;;;;;;11.15;9.35;;;;;;;16.00;49.30;102029.21;1734045;82;21149;-52
2021/04/12 13:00:23;;;;;;;13.80;10.08;;;;;;;16.04;49.37;102031.73;1741710;82;21173;-49
2021/04/12 13:02:51;;;;;;;11.60;10.18;;;;;;;16.07;49.41;102029.02;1705634;80;21171;-49
2021/04/12 13:05:27;;;;;;;12.35;9.90;;;;;;;16.11;49.30;102028.52;1723817;82;21217;-49
2021/04/12 13:08:32;;;;;;;12.13;9.50;;;;;;;16.13;49.21;102022.77;1736947;82;21286;-48
2021/04/12 13:11:00;;;;;;;10.80;9.70;;;;;;;16.13;49.29;102022.34;1655699;86;21232;-46
2021/04/12 13:13:33;;;;;;;13.50;9.30;;;;;;;16.13;49.18;102024.96;1633898;86;21311;-46
2021/04/12 13:16:19;;;;;;;11.78;9.63;;;;;;;16.08;49.26;102023.33;1576937;91;21196;-50
2021/04/12 13:19:02;;;;;;;11.25;9.20;;;;;;;16.06;49.48;102023.37;1771291;79;23140;-49
2021/04/12 13:21:38;;;;;;;13.30;10.03;;;;;;;15.97;49.58;102024.89;1738868;82;21529;-50
2021/04/12 13:24:17;;;;;;;12.53;9.70;;;;;;;15.96;49.88;102025.80;1737566;82;21156;-46
2021/04/12 13:27:08;;;;;;;10.78;9.05;;;;;;;15.97;49.90;102024.89;1604833;88;21191;-46